sensor_id;sensor_type;location;lat;lon;timestamp;temperature;humidity
29345;DHT22;16339;48.748;2.222;2022-09-09T00:01:24;19.90;65.10
29345;DHT22;16339;48.748;2.222;2022-09-09T00:03:59;20.00;65.10
29345;DHT22;16339;48.748;2.222;2022-09-09T00:06:30;19.90;65.30
29345;DHT22;16339;48.748;2.222;2022-09-09T00:09:10;19.90;65.10
29345;DHT22;16339;48.748;2.222;2022-09-09T00:11:43;20.00;65.40
29345;DHT22;16339;48.748;2.222;2022-09-09T00:14:21;20.00;65.00
29345;DHT22;16339;48.748;2.222;2022-09-09T00:16:55;19.90;64.70
29345;DHT22;16339;48.748;2.222;2022-09-09T00:19:28;19.60;65.20
29345;DHT22;16339;48.748;2.222;2022-09-09T00:22:12;19.50;65.70
29345;DHT22;16339;48.748;2.222;2022-09-09T00:24:48;19.60;66.60
29345;DHT22;16339;48.748;2.222;2022-09-09T00:27:24;19.40;66.60
29345;DHT22;16339;48.748;2.222;2022-09-09T00:29:56;19.20;67.00
29345;DHT22;16339;48.748;2.222;2022-09-09T00:32:29;19.30;67.30
29345;DHT22;16339;48.748;2.222;2022-09-09T00:35:02;19.40;66.80
29345;DHT22;16339;48.748;2.222;2022-09-09T00:37:32;19.40;66.70
29345;DHT22;16339;48.748;2.222;2022-09-09T00:40:16;19.30;67.40
29345;DHT22;16339;48.748;2.222;2022-09-09T00:42:54;19.30;67.20
29345;DHT22;16339;48.748;2.222;2022-09-09T00:45:43;19.50;67.20
29345;DHT22;16339;48.748;2.222;2022-09-09T00:48:15;19.60;67.00
29345;DHT22;16339;48.748;2.222;2022-09-09T00:50:48;19.60;66.60
29345;DHT22;16339;48.748;2.222;2022-09-09T00:53:30;19.10;67.80
29345;DHT22;16339;48.748;2.222;2022-09-09T00:56:12;19.30;67.90
29345;DHT22;16339;48.748;2.222;2022-09-09T00:58:43;19.40;67.40
29345;DHT22;16339;48.748;2.222;2022-09-09T01:01:16;19.20;67.70
29345;DHT22;16339;48.748;2.222;2022-09-09T01:03:48;19.10;68.00
29345;DHT22;16339;48.748;2.222;2022-09-09T01:06:24;19.20;68.00
29345;DHT22;16339;48.748;2.222;2022-09-09T01:09:08;19.20;67.70
29345;DHT22;16339;48.748;2.222;2022-09-09T01:11:52;19.20;67.60
29345;DHT22;16339;48.748;2.222;2022-09-09T01:14:40;19.20;68.00
29345;DHT22;16339;48.748;2.222;2022-09-09T01:17:15;19.10;67.90
29345;DHT22;16339;48.748;2.222;2022-09-09T01:19:58;19.10;68.40
29345;DHT22;16339;48.748;2.222;2022-09-09T01:22:34;19.10;68.30
29345;DHT22;16339;48.748;2.222;2022-09-09T01:25:20;19.30;67.90
29345;DHT22;16339;48.748;2.222;2022-09-09T01:27:55;19.30;68.00
29345;DHT22;16339;48.748;2.222;2022-09-09T01:30:35;19.30;68.00
29345;DHT22;16339;48.748;2.222;2022-09-09T01:33:04;19.10;68.10
29345;DHT22;16339;48.748;2.222;2022-09-09T01:35:39;19.00;68.40
29345;DHT22;16339;48.748;2.222;2022-09-09T01:38:09;19.10;68.70
29345;DHT22;16339;48.748;2.222;2022-09-09T01:40:38;19.10;68.30
29345;DHT22;16339;48.748;2.222;2022-09-09T01:43:10;19.10;68.60
29345;DHT22;16339;48.748;2.222;2022-09-09T01:45:39;18.90;69.10
29345;DHT22;16339;48.748;2.222;2022-09-09T01:48:09;19.00;69.00
29345;DHT22;16339;48.748;2.222;2022-09-09T01:50:38;19.00;69.50
29345;DHT22;16339;48.748;2.222;2022-09-09T01:53:07;19.20;69.00
29345;DHT22;16339;48.748;2.222;2022-09-09T01:58:57;19.20;68.60
29345;DHT22;16339;48.748;2.222;2022-09-09T02:01:35;19.10;68.70
29345;DHT22;16339;48.748;2.222;2022-09-09T02:04:14;18.90;68.60
29345;DHT22;16339;48.748;2.222;2022-09-09T02:06:46;18.90;70.20
29345;DHT22;16339;48.748;2.222;2022-09-09T02:09:18;19.10;69.10
29345;DHT22;16339;48.748;2.222;2022-09-09T02:11:47;19.20;68.80
29345;DHT22;16339;48.748;2.222;2022-09-09T02:14:25;19.10;68.60
29345;DHT22;16339;48.748;2.222;2022-09-09T02:16:59;18.90;69.50
29345;DHT22;16339;48.748;2.222;2022-09-09T02:19:32;18.90;69.20
29345;DHT22;16339;48.748;2.222;2022-09-09T02:22:03;18.80;69.90
29345;DHT22;16339;48.748;2.222;2022-09-09T02:24:35;18.80;70.00
29345;DHT22;16339;48.748;2.222;2022-09-09T02:27:07;18.90;70.30
29345;DHT22;16339;48.748;2.222;2022-09-09T02:29:41;19.00;69.70
29345;DHT22;16339;48.748;2.222;2022-09-09T02:32:17;18.80;69.70
29345;DHT22;16339;48.748;2.222;2022-09-09T02:34:49;19.00;69.10
29345;DHT22;16339;48.748;2.222;2022-09-09T02:37:21;19.10;69.30
29345;DHT22;16339;48.748;2.222;2022-09-09T02:39:54;19.00;68.60
29345;DHT22;16339;48.748;2.222;2022-09-09T02:42:22;19.00;68.70
29345;DHT22;16339;48.748;2.222;2022-09-09T02:44:54;18.70;69.50
29345;DHT22;16339;48.748;2.222;2022-09-09T02:47:30;18.60;70.40
29345;DHT22;16339;48.748;2.222;2022-09-09T02:50:08;18.60;70.50
29345;DHT22;16339;48.748;2.222;2022-09-09T02:52:50;18.70;70.70
29345;DHT22;16339;48.748;2.222;2022-09-09T02:55:29;18.90;69.90
29345;DHT22;16339;48.748;2.222;2022-09-09T02:58:04;18.80;70.00
29345;DHT22;16339;48.748;2.222;2022-09-09T03:00:36;19.00;69.90
29345;DHT22;16339;48.748;2.222;2022-09-09T03:03:05;19.10;69.60
29345;DHT22;16339;48.748;2.222;2022-09-09T03:05:34;19.00;69.60
29345;DHT22;16339;48.748;2.222;2022-09-09T03:08:05;19.10;69.70
29345;DHT22;16339;48.748;2.222;2022-09-09T03:10:34;19.20;69.20
29345;DHT22;16339;48.748;2.222;2022-09-09T03:13:03;18.90;69.90
29345;DHT22;16339;48.748;2.222;2022-09-09T03:15:35;19.00;69.60
29345;DHT22;16339;48.748;2.222;2022-09-09T03:18:04;19.10;69.40
29345;DHT22;16339;48.748;2.222;2022-09-09T03:20:32;19.10;69.10
29345;DHT22;16339;48.748;2.222;2022-09-09T03:23:01;19.30;68.70
29345;DHT22;16339;48.748;2.222;2022-09-09T03:25:31;19.40;68.40
29345;DHT22;16339;48.748;2.222;2022-09-09T03:28:00;19.60;68.00
29345;DHT22;16339;48.748;2.222;2022-09-09T03:30:28;19.40;68.10
29345;DHT22;16339;48.748;2.222;2022-09-09T03:33:00;19.40;68.40
29345;DHT22;16339;48.748;2.222;2022-09-09T03:35:29;19.40;68.40
29345;DHT22;16339;48.748;2.222;2022-09-09T03:37:58;19.40;68.80
29345;DHT22;16339;48.748;2.222;2022-09-09T03:40:26;19.40;68.30
29345;DHT22;16339;48.748;2.222;2022-09-09T03:42:56;19.40;68.40
29345;DHT22;16339;48.748;2.222;2022-09-09T03:45:25;19.20;68.60
29345;DHT22;16339;48.748;2.222;2022-09-09T03:47:54;19.30;68.80
29345;DHT22;16339;48.748;2.222;2022-09-09T03:50:25;19.10;69.30
29345;DHT22;16339;48.748;2.222;2022-09-09T03:52:55;19.00;69.40
29345;DHT22;16339;48.748;2.222;2022-09-09T03:55:24;18.90;70.30
29345;DHT22;16339;48.748;2.222;2022-09-09T03:57:52;19.00;69.70
29345;DHT22;16339;48.748;2.222;2022-09-09T04:00:21;19.00;69.70
29345;DHT22;16339;48.748;2.222;2022-09-09T04:02:50;19.00;70.20
29345;DHT22;16339;48.748;2.222;2022-09-09T04:05:19;19.10;70.00
29345;DHT22;16339;48.748;2.222;2022-09-09T04:07:51;19.10;69.60
29345;DHT22;16339;48.748;2.222;2022-09-09T04:10:19;18.80;70.50
29345;DHT22;16339;48.748;2.222;2022-09-09T04:12:48;18.50;71.90
29345;DHT22;16339;48.748;2.222;2022-09-09T04:15:18;18.70;71.50
29345;DHT22;16339;48.748;2.222;2022-09-09T04:17:46;18.80;71.20
29345;DHT22;16339;48.748;2.222;2022-09-09T04:20:15;18.40;71.70
29345;DHT22;16339;48.748;2.222;2022-09-09T04:22:45;18.70;71.90
29345;DHT22;16339;48.748;2.222;2022-09-09T04:25:16;18.90;71.10
29345;DHT22;16339;48.748;2.222;2022-09-09T04:27:45;18.60;71.70
29345;DHT22;16339;48.748;2.222;2022-09-09T04:30:17;18.80;71.70
29345;DHT22;16339;48.748;2.222;2022-09-09T04:32:46;18.50;71.90
29345;DHT22;16339;48.748;2.222;2022-09-09T04:35:15;18.50;72.30
29345;DHT22;16339;48.748;2.222;2022-09-09T04:37:45;18.70;71.50
29345;DHT22;16339;48.748;2.222;2022-09-09T04:40:17;18.60;71.20
29345;DHT22;16339;48.748;2.222;2022-09-09T04:42:47;18.60;71.70
29345;DHT22;16339;48.748;2.222;2022-09-09T04:45:16;18.60;71.10
29345;DHT22;16339;48.748;2.222;2022-09-09T04:47:45;18.70;71.40
29345;DHT22;16339;48.748;2.222;2022-09-09T04:50:14;18.80;70.70
29345;DHT22;16339;48.748;2.222;2022-09-09T04:52:43;18.90;70.80
29345;DHT22;16339;48.748;2.222;2022-09-09T04:55:12;18.90;70.60
29345;DHT22;16339;48.748;2.222;2022-09-09T04:57:43;18.70;70.20
29345;DHT22;16339;48.748;2.222;2022-09-09T05:00:14;18.50;72.00
29345;DHT22;16339;48.748;2.222;2022-09-09T05:02:43;18.60;71.80
29345;DHT22;16339;48.748;2.222;2022-09-09T05:05:11;18.70;71.10
29345;DHT22;16339;48.748;2.222;2022-09-09T05:07:40;18.70;70.80
29345;DHT22;16339;48.748;2.222;2022-09-09T05:10:09;18.80;71.00
29345;DHT22;16339;48.748;2.222;2022-09-09T05:12:39;18.90;70.60
29345;DHT22;16339;48.748;2.222;2022-09-09T05:15:11;18.90;70.50
29345;DHT22;16339;48.748;2.222;2022-09-09T05:17:40;18.60;70.90
29345;DHT22;16339;48.748;2.222;2022-09-09T05:20:09;18.60;71.30
29345;DHT22;16339;48.748;2.222;2022-09-09T05:22:38;18.50;71.40
29345;DHT22;16339;48.748;2.222;2022-09-09T05:25:07;18.30;72.40
29345;DHT22;16339;48.748;2.222;2022-09-09T05:27:36;18.40;72.30
29345;DHT22;16339;48.748;2.222;2022-09-09T05:30:06;18.60;71.80
29345;DHT22;16339;48.748;2.222;2022-09-09T05:32:37;18.80;71.80
29345;DHT22;16339;48.748;2.222;2022-09-09T05:35:06;18.80;71.30
29345;DHT22;16339;48.748;2.222;2022-09-09T05:37:35;18.70;71.90
29345;DHT22;16339;48.748;2.222;2022-09-09T05:40:06;18.80;71.60
29345;DHT22;16339;48.748;2.222;2022-09-09T05:42:35;18.60;72.60
29345;DHT22;16339;48.748;2.222;2022-09-09T05:45:05;18.60;72.40
29345;DHT22;16339;48.748;2.222;2022-09-09T05:47:37;18.50;72.80
29345;DHT22;16339;48.748;2.222;2022-09-09T05:50:06;18.40;73.20
29345;DHT22;16339;48.748;2.222;2022-09-09T05:52:35;18.20;73.60
29345;DHT22;16339;48.748;2.222;2022-09-09T05:55:05;18.20;74.20
29345;DHT22;16339;48.748;2.222;2022-09-09T05:57:34;18.50;73.70
29345;DHT22;16339;48.748;2.222;2022-09-09T06:00:06;18.50;73.20
29345;DHT22;16339;48.748;2.222;2022-09-09T06:02:37;18.40;73.20
29345;DHT22;16339;48.748;2.222;2022-09-09T06:05:07;18.30;73.60
29345;DHT22;16339;48.748;2.222;2022-09-09T06:07:36;18.40;73.80
29345;DHT22;16339;48.748;2.222;2022-09-09T06:10:08;18.70;72.90
29345;DHT22;16339;48.748;2.222;2022-09-09T06:12:39;18.90;72.00
29345;DHT22;16339;48.748;2.222;2022-09-09T06:15:09;19.10;71.20
29345;DHT22;16339;48.748;2.222;2022-09-09T06:17:40;19.10;70.80
29345;DHT22;16339;48.748;2.222;2022-09-09T06:20:11;18.60;72.30
29345;DHT22;16339;48.748;2.222;2022-09-09T06:22:40;18.60;72.80
29345;DHT22;16339;48.748;2.222;2022-09-09T06:25:12;18.60;72.40
29345;DHT22;16339;48.748;2.222;2022-09-09T06:27:41;18.80;72.50
29345;DHT22;16339;48.748;2.222;2022-09-09T06:30:11;18.90;72.20
29345;DHT22;16339;48.748;2.222;2022-09-09T06:32:42;19.00;71.80
29345;DHT22;16339;48.748;2.222;2022-09-09T06:35:11;18.90;72.00
29345;DHT22;16339;48.748;2.222;2022-09-09T06:37:40;18.60;72.50
29345;DHT22;16339;48.748;2.222;2022-09-09T06:40:14;18.70;72.60
29345;DHT22;16339;48.748;2.222;2022-09-09T06:42:43;18.50;72.60
29345;DHT22;16339;48.748;2.222;2022-09-09T06:45:12;18.30;73.60
29345;DHT22;16339;48.748;2.222;2022-09-09T06:47:43;18.20;74.10
29345;DHT22;16339;48.748;2.222;2022-09-09T06:50:12;18.30;74.10
29345;DHT22;16339;48.748;2.222;2022-09-09T06:52:42;18.30;73.90
29345;DHT22;16339;48.748;2.222;2022-09-09T06:55:10;18.60;73.20
29345;DHT22;16339;48.748;2.222;2022-09-09T06:57:41;18.40;73.70
29345;DHT22;16339;48.748;2.222;2022-09-09T07:00:11;18.40;73.70
29345;DHT22;16339;48.748;2.222;2022-09-09T07:02:43;18.50;73.90
29345;DHT22;16339;48.748;2.222;2022-09-09T07:05:12;18.90;72.70
29345;DHT22;16339;48.748;2.222;2022-09-09T07:07:41;18.90;71.60
29345;DHT22;16339;48.748;2.222;2022-09-09T07:10:10;19.10;71.80
29345;DHT22;16339;48.748;2.222;2022-09-09T07:12:39;19.30;71.20
29345;DHT22;16339;48.748;2.222;2022-09-09T07:15:09;19.30;70.30
29345;DHT22;16339;48.748;2.222;2022-09-09T07:17:38;19.40;69.60
29345;DHT22;16339;48.748;2.222;2022-09-09T07:20:10;19.20;70.30
29345;DHT22;16339;48.748;2.222;2022-09-09T07:22:39;19.20;70.00
29345;DHT22;16339;48.748;2.222;2022-09-09T07:25:10;19.30;70.20
29345;DHT22;16339;48.748;2.222;2022-09-09T07:27:39;19.30;69.90
29345;DHT22;16339;48.748;2.222;2022-09-09T07:30:09;19.20;70.50
29345;DHT22;16339;48.748;2.222;2022-09-09T07:32:38;19.10;70.30
29345;DHT22;16339;48.748;2.222;2022-09-09T07:35:10;19.00;70.00
29345;DHT22;16339;48.748;2.222;2022-09-09T07:37:38;19.00;69.90
29345;DHT22;16339;48.748;2.222;2022-09-09T07:40:08;19.00;69.90
29345;DHT22;16339;48.748;2.222;2022-09-09T07:42:36;18.90;70.20
29345;DHT22;16339;48.748;2.222;2022-09-09T07:45:06;18.90;70.60
29345;DHT22;16339;48.748;2.222;2022-09-09T07:47:34;19.10;70.30
29345;DHT22;16339;48.748;2.222;2022-09-09T07:50:04;19.00;70.30
29345;DHT22;16339;48.748;2.222;2022-09-09T07:52:36;19.00;70.90
29345;DHT22;16339;48.748;2.222;2022-09-09T07:55:05;19.10;70.50
29345;DHT22;16339;48.748;2.222;2022-09-09T07:57:35;19.10;69.90
29345;DHT22;16339;48.748;2.222;2022-09-09T08:00:05;19.10;70.10
29345;DHT22;16339;48.748;2.222;2022-09-09T08:02:36;19.30;70.30
29345;DHT22;16339;48.748;2.222;2022-09-09T08:05:04;19.10;69.20
29345;DHT22;16339;48.748;2.222;2022-09-09T08:07:37;19.10;69.80
29345;DHT22;16339;48.748;2.222;2022-09-09T08:10:05;19.20;69.30
29345;DHT22;16339;48.748;2.222;2022-09-09T08:12:34;19.30;69.40
29345;DHT22;16339;48.748;2.222;2022-09-09T08:15:04;19.80;68.80
29345;DHT22;16339;48.748;2.222;2022-09-09T08:17:33;19.50;67.90
29345;DHT22;16339;48.748;2.222;2022-09-09T08:20:04;19.50;68.00
29345;DHT22;16339;48.748;2.222;2022-09-09T08:22:36;19.40;68.50
29345;DHT22;16339;48.748;2.222;2022-09-09T08:25:05;19.10;68.60
29345;DHT22;16339;48.748;2.222;2022-09-09T08:27:35;19.20;68.70
29345;DHT22;16339;48.748;2.222;2022-09-09T08:30:05;19.30;68.70
29345;DHT22;16339;48.748;2.222;2022-09-09T08:32:34;19.40;68.30
29345;DHT22;16339;48.748;2.222;2022-09-09T08:35:03;19.30;68.50
29345;DHT22;16339;48.748;2.222;2022-09-09T08:37:32;19.50;68.80
29345;DHT22;16339;48.748;2.222;2022-09-09T08:40:05;19.40;68.30
29345;DHT22;16339;48.748;2.222;2022-09-09T08:42:38;19.30;68.60
29345;DHT22;16339;48.748;2.222;2022-09-09T08:45:25;19.40;68.60
29345;DHT22;16339;48.748;2.222;2022-09-09T08:48:15;19.60;67.80
29345;DHT22;16339;48.748;2.222;2022-09-09T08:50:46;19.40;68.00
29345;DHT22;16339;48.748;2.222;2022-09-09T08:53:20;19.40;68.30
29345;DHT22;16339;48.748;2.222;2022-09-09T08:56:00;19.70;67.70
29345;DHT22;16339;48.748;2.222;2022-09-09T08:58:31;19.60;67.70
29345;DHT22;16339;48.748;2.222;2022-09-09T09:01:16;19.80;67.20
29345;DHT22;16339;48.748;2.222;2022-09-09T09:03:54;19.60;67.60
29345;DHT22;16339;48.748;2.222;2022-09-09T09:06:39;19.70;69.20
29345;DHT22;16339;48.748;2.222;2022-09-09T09:09:14;19.50;67.80
29345;DHT22;16339;48.748;2.222;2022-09-09T09:11:49;19.80;68.00
29345;DHT22;16339;48.748;2.222;2022-09-09T09:14:20;19.80;68.10
29345;DHT22;16339;48.748;2.222;2022-09-09T09:16:54;19.90;67.90
29345;DHT22;16339;48.748;2.222;2022-09-09T09:19:26;20.00;67.60
29345;DHT22;16339;48.748;2.222;2022-09-09T09:22:00;19.80;67.90
29345;DHT22;16339;48.748;2.222;2022-09-09T09:24:40;19.70;67.70
29345;DHT22;16339;48.748;2.222;2022-09-09T09:27:15;20.00;67.20
29345;DHT22;16339;48.748;2.222;2022-09-09T09:29:44;20.40;66.50
29345;DHT22;16339;48.748;2.222;2022-09-09T09:32:18;20.20;65.60
29345;DHT22;16339;48.748;2.222;2022-09-09T09:34:49;20.40;65.80
29345;DHT22;16339;48.748;2.222;2022-09-09T09:37:26;20.20;65.10
29345;DHT22;16339;48.748;2.222;2022-09-09T09:39:55;19.90;66.60
29345;DHT22;16339;48.748;2.222;2022-09-09T09:42:27;20.00;66.90
29345;DHT22;16339;48.748;2.222;2022-09-09T09:44:56;19.90;66.60
29345;DHT22;16339;48.748;2.222;2022-09-09T09:47:25;20.00;67.00
29345;DHT22;16339;48.748;2.222;2022-09-09T09:49:56;19.90;67.70
29345;DHT22;16339;48.748;2.222;2022-09-09T09:52:26;19.80;67.20
29345;DHT22;16339;48.748;2.222;2022-09-09T09:54:57;19.90;67.10
29345;DHT22;16339;48.748;2.222;2022-09-09T09:57:30;19.90;67.70
29345;DHT22;16339;48.748;2.222;2022-09-09T10:00:12;20.20;66.60
29345;DHT22;16339;48.748;2.222;2022-09-09T10:02:43;20.10;66.90
29345;DHT22;16339;48.748;2.222;2022-09-09T10:05:15;20.00;66.10
29345;DHT22;16339;48.748;2.222;2022-09-09T10:07:45;20.30;67.00
29345;DHT22;16339;48.748;2.222;2022-09-09T10:10:20;20.60;66.10
29345;DHT22;16339;48.748;2.222;2022-09-09T10:12:59;20.90;65.20
29345;DHT22;16339;48.748;2.222;2022-09-09T10:15:39;20.80;64.70
29345;DHT22;16339;48.748;2.222;2022-09-09T10:18:30;21.00;64.50
29345;DHT22;16339;48.748;2.222;2022-09-09T10:21:11;20.80;64.20
29345;DHT22;16339;48.748;2.222;2022-09-09T10:24:08;20.50;64.70
29345;DHT22;16339;48.748;2.222;2022-09-09T10:26:44;20.40;65.20
29345;DHT22;16339;48.748;2.222;2022-09-09T10:29:31;20.30;65.50
29345;DHT22;16339;48.748;2.222;2022-09-09T10:32:16;20.40;65.10
29345;DHT22;16339;48.748;2.222;2022-09-09T10:34:56;20.40;65.60
29345;DHT22;16339;48.748;2.222;2022-09-09T10:37:40;20.40;65.20
29345;DHT22;16339;48.748;2.222;2022-09-09T10:40:26;20.30;65.20
29345;DHT22;16339;48.748;2.222;2022-09-09T10:43:03;20.40;65.70
29345;DHT22;16339;48.748;2.222;2022-09-09T10:45:56;20.80;64.90
29345;DHT22;16339;48.748;2.222;2022-09-09T10:48:35;20.80;64.10
29345;DHT22;16339;48.748;2.222;2022-09-09T10:51:21;20.80;64.20
29345;DHT22;16339;48.748;2.222;2022-09-09T10:54:05;20.80;63.30
29345;DHT22;16339;48.748;2.222;2022-09-09T10:56:39;20.90;62.80
29345;DHT22;16339;48.748;2.222;2022-09-09T10:59:16;20.90;63.30
29345;DHT22;16339;48.748;2.222;2022-09-09T11:01:51;21.00;63.60
29345;DHT22;16339;48.748;2.222;2022-09-09T11:04:23;21.20;62.50
29345;DHT22;16339;48.748;2.222;2022-09-09T11:06:54;21.30;62.70
29345;DHT22;16339;48.748;2.222;2022-09-09T11:09:26;21.30;61.90
29345;DHT22;16339;48.748;2.222;2022-09-09T11:11:58;21.20;62.50
29345;DHT22;16339;48.748;2.222;2022-09-09T11:14:36;21.10;62.40
29345;DHT22;16339;48.748;2.222;2022-09-09T11:17:12;20.90;62.50
29345;DHT22;16339;48.748;2.222;2022-09-09T11:19:43;20.80;62.80
29345;DHT22;16339;48.748;2.222;2022-09-09T11:22:18;20.80;62.70
29345;DHT22;16339;48.748;2.222;2022-09-09T11:24:53;20.90;62.50
29345;DHT22;16339;48.748;2.222;2022-09-09T11:27:27;20.90;63.00
29345;DHT22;16339;48.748;2.222;2022-09-09T11:30:16;20.90;63.10
29345;DHT22;16339;48.748;2.222;2022-09-09T11:33:07;21.00;61.80
29345;DHT22;16339;48.748;2.222;2022-09-09T11:35:47;21.00;61.50
29345;DHT22;16339;48.748;2.222;2022-09-09T11:38:23;21.00;60.50
29345;DHT22;16339;48.748;2.222;2022-09-09T11:40:58;21.20;61.80
29345;DHT22;16339;48.748;2.222;2022-09-09T11:43:30;21.20;60.50
29345;DHT22;16339;48.748;2.222;2022-09-09T11:46:02;21.10;59.70
29345;DHT22;16339;48.748;2.222;2022-09-09T11:48:36;21.10;61.50
29345;DHT22;16339;48.748;2.222;2022-09-09T11:51:07;20.90;61.50
29345;DHT22;16339;48.748;2.222;2022-09-09T11:53:48;20.90;61.80
29345;DHT22;16339;48.748;2.222;2022-09-09T11:56:27;21.10;61.80
29345;DHT22;16339;48.748;2.222;2022-09-09T11:59:02;20.90;64.20
29345;DHT22;16339;48.748;2.222;2022-09-09T12:01:36;20.90;64.10
29345;DHT22;16339;48.748;2.222;2022-09-09T12:04:18;20.60;64.30
29345;DHT22;16339;48.748;2.222;2022-09-09T12:06:53;20.20;65.20
29345;DHT22;16339;48.748;2.222;2022-09-09T12:09:31;20.20;66.40
29345;DHT22;16339;48.748;2.222;2022-09-09T12:12:22;20.30;65.30
29345;DHT22;16339;48.748;2.222;2022-09-09T12:17:44;20.20;64.30
29345;DHT22;16339;48.748;2.222;2022-09-09T12:20:17;20.20;64.70
29345;DHT22;16339;48.748;2.222;2022-09-09T12:23:03;20.20;65.70
29345;DHT22;16339;48.748;2.222;2022-09-09T12:25:47;20.30;66.90
29345;DHT22;16339;48.748;2.222;2022-09-09T12:28:18;20.40;68.40
29345;DHT22;16339;48.748;2.222;2022-09-09T12:30:55;20.50;68.60
29345;DHT22;16339;48.748;2.222;2022-09-09T12:33:34;20.30;68.80
29345;DHT22;16339;48.748;2.222;2022-09-09T12:36:11;20.20;68.00
29345;DHT22;16339;48.748;2.222;2022-09-09T12:38:42;20.10;70.00
29345;DHT22;16339;48.748;2.222;2022-09-09T12:41:19;20.20;69.70
29345;DHT22;16339;48.748;2.222;2022-09-09T12:43:49;20.30;70.70
29345;DHT22;16339;48.748;2.222;2022-09-09T12:46:23;20.40;72.00
29345;DHT22;16339;48.748;2.222;2022-09-09T12:48:54;20.20;69.60
29345;DHT22;16339;48.748;2.222;2022-09-09T12:51:28;20.30;71.00
29345;DHT22;16339;48.748;2.222;2022-09-09T12:53:58;20.40;71.10
29345;DHT22;16339;48.748;2.222;2022-09-09T12:56:29;20.40;70.00
29345;DHT22;16339;48.748;2.222;2022-09-09T12:58:59;20.30;70.50
29345;DHT22;16339;48.748;2.222;2022-09-09T13:01:29;19.90;72.20
29345;DHT22;16339;48.748;2.222;2022-09-09T13:03:59;19.90;73.50
29345;DHT22;16339;48.748;2.222;2022-09-09T13:06:32;19.70;77.20
29345;DHT22;16339;48.748;2.222;2022-09-09T13:09:02;19.60;83.80
29345;DHT22;16339;48.748;2.222;2022-09-09T13:11:35;19.20;80.80
29345;DHT22;16339;48.748;2.222;2022-09-09T13:14:05;19.00;84.90
29345;DHT22;16339;48.748;2.222;2022-09-09T13:16:35;18.80;87.60
29345;DHT22;16339;48.748;2.222;2022-09-09T13:19:08;18.70;85.10
29345;DHT22;16339;48.748;2.222;2022-09-09T13:21:40;18.60;88.50
29345;DHT22;16339;48.748;2.222;2022-09-09T13:24:27;18.50;86.00
29345;DHT22;16339;48.748;2.222;2022-09-09T13:26:58;18.10;90.10
29345;DHT22;16339;48.748;2.222;2022-09-09T13:29:27;18.10;91.50
29345;DHT22;16339;48.748;2.222;2022-09-09T13:32:04;18.40;91.70
29345;DHT22;16339;48.748;2.222;2022-09-09T13:42:29;19.30;93.10
29345;DHT22;16339;48.748;2.222;2022-09-09T13:45:01;19.40;92.50
29345;DHT22;16339;48.748;2.222;2022-09-09T13:47:33;19.40;91.00
29345;DHT22;16339;48.748;2.222;2022-09-09T13:50:18;19.50;91.50
29345;DHT22;16339;48.748;2.222;2022-09-09T13:52:47;19.60;91.60
29345;DHT22;16339;48.748;2.222;2022-09-09T13:55:17;19.50;90.70
29345;DHT22;16339;48.748;2.222;2022-09-09T13:57:54;19.60;90.70
29345;DHT22;16339;48.748;2.222;2022-09-09T14:00:24;19.60;90.10
29345;DHT22;16339;48.748;2.222;2022-09-09T14:02:53;19.70;91.70
29345;DHT22;16339;48.748;2.222;2022-09-09T14:05:23;20.00;92.20
29345;DHT22;16339;48.748;2.222;2022-09-09T14:07:53;20.10;90.70
29345;DHT22;16339;48.748;2.222;2022-09-09T14:10:22;20.10;87.40
29345;DHT22;16339;48.748;2.222;2022-09-09T14:12:53;20.20;90.70
29345;DHT22;16339;48.748;2.222;2022-09-09T14:15:21;20.20;85.10
29345;DHT22;16339;48.748;2.222;2022-09-09T14:17:50;19.80;86.50
29345;DHT22;16339;48.748;2.222;2022-09-09T14:20:19;20.00;87.30
29345;DHT22;16339;48.748;2.222;2022-09-09T14:22:48;20.20;87.50
29345;DHT22;16339;48.748;2.222;2022-09-09T14:25:16;20.00;83.60
29345;DHT22;16339;48.748;2.222;2022-09-09T14:27:45;19.90;86.40
29345;DHT22;16339;48.748;2.222;2022-09-09T14:30:17;19.90;85.20
29345;DHT22;16339;48.748;2.222;2022-09-09T14:32:46;20.10;86.30
29345;DHT22;16339;48.748;2.222;2022-09-09T14:35:15;20.10;85.50
29345;DHT22;16339;48.748;2.222;2022-09-09T14:37:44;19.90;84.10
29345;DHT22;16339;48.748;2.222;2022-09-09T14:40:14;20.10;83.70
29345;DHT22;16339;48.748;2.222;2022-09-09T14:42:43;20.10;83.70
29345;DHT22;16339;48.748;2.222;2022-09-09T14:45:12;20.20;86.70
29345;DHT22;16339;48.748;2.222;2022-09-09T14:47:43;20.00;84.10
29345;DHT22;16339;48.748;2.222;2022-09-09T14:50:11;20.30;84.10
29345;DHT22;16339;48.748;2.222;2022-09-09T14:52:40;20.40;79.90
29345;DHT22;16339;48.748;2.222;2022-09-09T14:55:09;20.20;81.10
29345;DHT22;16339;48.748;2.222;2022-09-09T14:57:38;20.40;81.50
29345;DHT22;16339;48.748;2.222;2022-09-09T15:00:09;20.60;82.70
29345;DHT22;16339;48.748;2.222;2022-09-09T15:02:38;20.50;81.20
29345;DHT22;16339;48.748;2.222;2022-09-09T15:05:09;20.40;79.70
29345;DHT22;16339;48.748;2.222;2022-09-09T15:07:38;20.30;80.60
29345;DHT22;16339;48.748;2.222;2022-09-09T15:10:07;20.50;81.80
29345;DHT22;16339;48.748;2.222;2022-09-09T15:12:36;20.40;81.60
29345;DHT22;16339;48.748;2.222;2022-09-09T15:15:06;20.60;80.50
29345;DHT22;16339;48.748;2.222;2022-09-09T15:17:34;20.30;77.80
29345;DHT22;16339;48.748;2.222;2022-09-09T15:20:05;20.40;80.80
29345;DHT22;16339;48.748;2.222;2022-09-09T15:22:36;20.40;80.80
29345;DHT22;16339;48.748;2.222;2022-09-09T15:25:06;20.60;78.20
29345;DHT22;16339;48.748;2.222;2022-09-09T15:27:36;20.40;80.60
29345;DHT22;16339;48.748;2.222;2022-09-09T15:30:07;20.50;77.70
29345;DHT22;16339;48.748;2.222;2022-09-09T15:32:36;20.40;79.20
29345;DHT22;16339;48.748;2.222;2022-09-09T15:35:06;20.60;81.50
29345;DHT22;16339;48.748;2.222;2022-09-09T15:37:37;20.70;77.80
29345;DHT22;16339;48.748;2.222;2022-09-09T15:40:06;20.60;78.10
29345;DHT22;16339;48.748;2.222;2022-09-09T15:42:35;20.40;78.10
29345;DHT22;16339;48.748;2.222;2022-09-09T15:45:06;20.50;78.80
29345;DHT22;16339;48.748;2.222;2022-09-09T15:47:35;20.50;80.60
29345;DHT22;16339;48.748;2.222;2022-09-09T15:50:05;20.60;80.90
29345;DHT22;16339;48.748;2.222;2022-09-09T15:52:36;20.70;81.10
29345;DHT22;16339;48.748;2.222;2022-09-09T15:55:08;20.60;79.00
29345;DHT22;16339;48.748;2.222;2022-09-09T15:57:37;20.20;79.10
29345;DHT22;16339;48.748;2.222;2022-09-09T16:00:07;20.30;80.20
29345;DHT22;16339;48.748;2.222;2022-09-09T16:02:38;20.10;80.10
29345;DHT22;16339;48.748;2.222;2022-09-09T16:05:07;20.40;81.60
29345;DHT22;16339;48.748;2.222;2022-09-09T16:07:38;20.60;82.80
29345;DHT22;16339;48.748;2.222;2022-09-09T16:10:08;20.60;81.00
29345;DHT22;16339;48.748;2.222;2022-09-09T16:12:39;20.30;77.80
29345;DHT22;16339;48.748;2.222;2022-09-09T16:15:08;20.40;80.50
29345;DHT22;16339;48.748;2.222;2022-09-09T16:17:38;20.50;79.10